Time;durP1;ratioP1;P1;durP2;ratioP2;P2;SDS_P1;SDS_P2;PMS_P1;PMS_P2;Temp;Humidity;BMP_temperature;BMP_pressure;BME280_temperature;BME280_humidity;BME280_pressure;Samples;Min_cycle;Max_cycle;Signal;HPM_P1;HPM_P2
2022/09/19 00:01:35;;;;;;;8.80;3.90;;;10.90;99.90;;;;;;5113267;27;20031;-70
2022/09/19 00:04:04;;;;;;;8.82;4.00;;;10.90;99.90;;;;;;5115521;27;20036;-72
2022/09/19 00:06:32;;;;;;;6.78;3.85;;;10.80;99.90;;;;;;5110521;27;20042;-69
2022/09/19 00:08:58;;;;;;;7.30;4.13;;;10.80;99.90;;;;;;5109909;28;20534;-70
2022/09/19 00:11:25;;;;;;;7.80;3.78;;;10.70;99.90;;;;;;5109195;27;20040;-70
2022/09/19 00:13:54;;;;;;;6.93;3.63;;;10.70;99.90;;;;;;5096343;27;20038;-69
2022/09/19 00:16:26;;;;;;;7.03;3.60;;;10.70;99.90;;;;;;5097624;27;20038;-69
2022/09/19 00:18:54;;;;;;;6.45;3.60;;;10.70;99.90;;;;;;5111419;27;20035;-69
2022/09/19 00:21:28;;;;;;;7.30;3.50;;;10.70;99.90;;;;;;5091390;27;20031;-70
2022/09/19 00:26:40;;;;;;;8.27;3.38;;;10.70;99.90;;;;;;5107159;28;20568;-70
2022/09/19 00:29:08;;;;;;;9.38;3.38;;;10.70;99.90;;;;;;5093229;27;20039;-71
2022/09/19 00:31:34;;;;;;;6.78;3.38;;;10.70;99.90;;;;;;5114515;27;20035;-69
2022/09/19 00:34:00;;;;;;;5.97;3.42;;;10.70;99.90;;;;;;5128839;27;20031;-69
2022/09/19 00:36:27;;;;;;;5.63;3.08;;;10.70;99.90;;;;;;5129592;27;20458;-71
2022/09/19 00:38:53;;;;;;;6.90;3.25;;;10.70;99.90;;;;;;5125220;27;20023;-70
2022/09/19 00:41:25;;;;;;;6.60;2.83;;;10.70;99.90;;;;;;5120007;27;21879;-69
2022/09/19 00:43:57;;;;;;;7.53;2.70;;;10.70;99.90;;;;;;5094639;28;20038;-70
2022/09/19 00:46:25;;;;;;;6.88;2.80;;;10.80;99.90;;;;;;5092332;28;20034;-69
2022/09/19 00:49:07;;;;;;;5.43;2.78;;;10.80;99.90;;;;;;5091529;27;20104;-69
2022/09/19 00:51:40;;;;;;;6.18;2.90;;;10.80;99.90;;;;;;5108549;28;20035;-69
2022/09/19 00:54:13;;;;;;;6.30;2.88;;;10.90;99.90;;;;;;5091625;28;20036;-70
2022/09/19 00:56:46;;;;;;;5.60;3.35;;;10.80;99.90;;;;;;5103455;28;20024;-69
2022/09/19 00:59:13;;;;;;;7.85;3.05;;;10.80;99.90;;;;;;5109088;27;20027;-69
2022/09/19 01:01:39;;;;;;;5.00;2.95;;;10.80;99.90;;;;;;5086089;28;20127;-70
2022/09/19 01:04:16;;;;;;;7.22;3.58;;;10.80;99.90;;;;;;5102214;27;20031;-69
2022/09/19 01:07:04;;;;;;;6.82;3.22;;;10.80;99.90;;;;;;5091562;28;20027;-70
2022/09/19 01:09:35;;;;;;;6.97;3.20;;;10.70;99.90;;;;;;5108247;28;20546;-69
2022/09/19 01:12:15;;;;;;;6.22;3.53;;;10.60;99.90;;;;;;5109409;28;20114;-69
2022/09/19 01:15:04;;;;;;;7.00;3.10;;;10.60;99.90;;;;;;5088084;28;20767;-70
2022/09/19 01:17:46;;;;;;;5.82;2.72;;;10.50;99.90;;;;;;5108098;28;20489;-69
2022/09/19 01:20:21;;;;;;;6.60;3.17;;;10.60;99.90;;;;;;5090928;28;20043;-69
2022/09/19 01:23:05;;;;;;;5.03;2.80;;;10.70;99.90;;;;;;5094596;27;20564;-69
2022/09/19 01:25:47;;;;;;;5.65;2.95;;;10.60;99.90;;;;;;5108856;27;20023;-69
2022/09/19 01:28:41;;;;;;;6.88;3.47;;;10.60;99.90;;;;;;5091633;27;20031;-69
2022/09/19 01:31:20;;;;;;;5.85;3.33;;;10.50;99.90;;;;;;5104745;27;20073;-69
2022/09/19 01:34:02;;;;;;;5.55;3.28;;;10.50;99.90;;;;;;5083631;28;20131;-70
2022/09/19 01:36:32;;;;;;;5.43;3.05;;;10.30;99.90;;;;;;5112373;27;20027;-69
2022/09/19 01:39:01;;;;;;;4.93;3.03;;;10.30;99.90;;;;;;5108423;27;20622;-69
2022/09/19 01:41:27;;;;;;;5.47;3.17;;;10.20;99.90;;;;;;5112362;27;20104;-70
2022/09/19 01:43:53;;;;;;;6.18;2.90;;;10.20;99.90;;;;;;5082545;28;20413;-69
2022/09/19 01:46:32;;;;;;;7.85;3.13;;;10.20;99.90;;;;;;5105670;27;20066;-69
2022/09/19 01:49:10;;;;;;;4.83;3.00;;;10.20;99.90;;;;;;5093238;27;20062;-69
2022/09/19 01:51:49;;;;;;;7.55;3.05;;;10.20;99.90;;;;;;5107508;28;20055;-70
2022/09/19 01:54:28;;;;;;;7.57;3.50;;;10.20;99.90;;;;;;5093838;27;20035;-69
2022/09/19 01:57:39;;;;;;;6.32;3.17;;;10.20;99.90;;;;;;5109330;27;20031;-69
2022/09/19 02:00:16;;;;;;;5.88;3.35;;;10.20;99.90;;;;;;5091432;28;20561;-70
2022/09/19 02:03:11;;;;;;;5.43;2.80;;;10.10;99.90;;;;;;5094627;27;20035;-71
2022/09/19 02:06:07;;;;;;;6.32;2.85;;;10.20;99.90;;;;;;5092718;28;20110;-69
2022/09/19 02:09:08;;;;;;;7.30;3.22;;;10.20;99.90;;;;;;5093173;28;20174;-70
2022/09/19 02:11:35;;;;;;;5.93;3.10;;;10.10;99.90;;;;;;5079286;28;20124;-69
2022/09/19 02:14:19;;;;;;;5.35;2.80;;;10.00;99.90;;;;;;5106272;27;20032;-69
2022/09/19 02:16:51;;;;;;;6.57;3.13;;;9.90;99.90;;;;;;5106226;28;20027;-69
2022/09/19 02:19:35;;;;;;;5.43;2.75;;;9.90;99.90;;;;;;5110278;27;20489;-68
2022/09/19 02:22:09;;;;;;;6.25;2.72;;;9.90;99.90;;;;;;5109084;27;20485;-69
2022/09/19 02:24:40;;;;;;;8.30;3.20;;;9.80;99.90;;;;;;5092741;28;20078;-69
2022/09/19 02:27:16;;;;;;;6.10;3.25;;;9.80;99.90;;;;;;5092676;27;20146;-69
2022/09/19 02:29:48;;;;;;;5.30;3.17;;;9.80;99.90;;;;;;5103591;27;20034;-70
2022/09/19 02:32:16;;;;;;;8.15;3.05;;;9.80;99.90;;;;;;5109045;27;20038;-69
2022/09/19 02:34:43;;;;;;;6.55;3.15;;;9.80;99.90;;;;;;5126716;27;20046;-69
2022/09/19 02:37:30;;;;;;;7.68;3.28;;;9.80;99.90;;;;;;5091926;28;20031;-69
2022/09/19 02:39:56;;;;;;;6.05;3.17;;;9.80;99.90;;;;;;5104340;28;20035;-70
2022/09/19 02:42:51;;;;;;;4.88;3.10;;;9.80;99.90;;;;;;5087067;27;20800;-69
2022/09/19 02:45:32;;;;;;;6.53;3.50;;;9.80;99.90;;;;;;5105355;28;20032;-70
2022/09/19 02:48:14;;;;;;;6.70;3.63;;;9.70;99.90;;;;;;5088510;28;20093;-69
2022/09/19 02:50:47;;;;;;;6.00;3.25;;;9.60;99.90;;;;;;5084620;28;20316;-69
2022/09/19 02:53:19;;;;;;;6.88;3.63;;;9.60;99.90;;;;;;5086149;28;20620;-71
2022/09/19 02:55:52;;;;;;;5.90;3.72;;;9.60;99.90;;;;;;5086537;28;20487;-70
2022/09/19 02:58:21;;;;;;;5.80;3.50;;;9.60;99.90;;;;;;5086321;28;20138;-69
2022/09/19 03:00:51;;;;;;;7.45;3.85;;;9.50;99.90;;;;;;5086962;28;20482;-69
2022/09/19 03:06:14;;;;;;;8.88;4.10;;;9.50;99.90;;;;;;5086995;28;20058;-69
2022/09/19 03:08:45;;;;;;;6.77;3.83;;;9.50;99.90;;;;;;5081636;28;20086;-70
2022/09/19 03:11:15;;;;;;;7.25;4.28;;;9.40;99.90;;;;;;5085632;28;20040;-69
2022/09/19 03:13:42;;;;;;;6.65;3.70;;;9.30;99.90;;;;;;5101255;28;20031;-69
2022/09/19 03:16:11;;;;;;;7.85;3.92;;;9.20;99.90;;;;;;5092708;28;20028;-71
2022/09/19 03:18:39;;;;;;;9.37;4.10;;;9.20;99.90;;;;;;5088583;28;20031;-70
2022/09/19 03:21:08;;;;;;;6.53;3.72;;;9.20;99.90;;;;;;5087160;28;20307;-71
2022/09/19 03:23:41;;;;;;;6.63;3.58;;;9.20;99.90;;;;;;5089045;28;20036;-69
2022/09/19 03:26:09;;;;;;;7.22;4.07;;;9.20;99.90;;;;;;5091782;28;20124;-69
2022/09/19 03:28:35;;;;;;;7.30;3.95;;;9.30;99.90;;;;;;5086130;28;20386;-69
2022/09/19 03:31:01;;;;;;;8.23;4.43;;;9.30;99.90;;;;;;5087195;28;20047;-69
2022/09/19 03:33:28;;;;;;;6.18;3.90;;;9.40;99.90;;;;;;5090838;28;20508;-69
2022/09/19 03:35:57;;;;;;;7.95;4.25;;;9.40;99.90;;;;;;5088661;28;20020;-69
2022/09/19 03:38:23;;;;;;;8.27;4.22;;;9.40;99.90;;;;;;5102533;28;20118;-69
2022/09/19 03:40:49;;;;;;;6.07;3.70;;;9.50;99.90;;;;;;5105870;28;20031;-70
2022/09/19 03:43:14;;;;;;;7.78;3.80;;;9.50;99.90;;;;;;5101358;28;20444;-70
2022/09/19 03:45:40;;;;;;;7.18;3.78;;;9.50;99.90;;;;;;5106526;28;20130;-70
2022/09/19 03:48:06;;;;;;;6.72;4.15;;;9.60;99.90;;;;;;5109822;28;20061;-69
2022/09/19 03:50:31;;;;;;;9.05;4.28;;;9.60;99.90;;;;;;5128716;28;20031;-70
2022/09/19 03:52:58;;;;;;;6.47;4.13;;;9.60;99.90;;;;;;5109831;28;20039;-69
2022/09/19 03:55:24;;;;;;;7.22;3.97;;;9.70;99.90;;;;;;5106788;28;20032;-69
2022/09/19 03:57:50;;;;;;;8.35;4.35;;;9.70;99.90;;;;;;5107378;28;20028;-70
2022/09/19 04:00:16;;;;;;;6.72;3.70;;;9.70;99.90;;;;;;5100426;28;20476;-71
2022/09/19 04:02:42;;;;;;;7.13;3.88;;;9.70;99.90;;;;;;5124254;28;20039;-70
2022/09/19 04:05:08;;;;;;;6.20;3.97;;;9.70;99.90;;;;;;5128435;28;20504;-70
2022/09/19 04:07:34;;;;;;;8.07;4.18;;;9.80;99.90;;;;;;5098856;28;20034;-69
2022/09/19 04:10:00;;;;;;;7.95;4.20;;;9.80;99.90;;;;;;5110390;28;20545;-69
2022/09/19 04:12:26;;;;;;;6.78;4.03;;;9.80;99.90;;;;;;5110580;28;20034;-69
2022/09/19 04:14:52;;;;;;;6.70;3.80;;;9.80;99.90;;;;;;5108964;28;20036;-69
2022/09/19 04:17:18;;;;;;;7.03;3.70;;;9.80;99.90;;;;;;5093079;28;20023;-70
2022/09/19 04:19:43;;;;;;;5.05;3.13;;;9.90;99.90;;;;;;5112693;27;20035;-69
2022/09/19 04:22:09;;;;;;;5.32;3.53;;;9.90;99.90;;;;;;5109345;28;20039;-70
2022/09/19 04:24:42;;;;;;;8.50;3.60;;;9.90;99.90;;;;;;5110879;27;20044;-69
2022/09/19 04:27:12;;;;;;;9.48;4.00;;;10.00;99.90;;;;;;5108612;28;20043;-69
2022/09/19 04:29:38;;;;;;;6.05;3.40;;;10.00;99.90;;;;;;5085599;28;20112;-68
2022/09/19 04:32:04;;;;;;;7.32;3.20;;;10.10;99.90;;;;;;5114146;27;20030;-69
2022/09/19 04:34:30;;;;;;;6.40;3.63;;;10.10;99.90;;;;;;5115200;27;20031;-69
2022/09/19 04:36:57;;;;;;;6.25;3.40;;;10.10;99.90;;;;;;5120510;27;20077;-70
2022/09/19 04:39:24;;;;;;;6.10;3.80;;;10.10;99.90;;;;;;5130738;27;20070;-70
2022/09/19 04:41:52;;;;;;;8.13;3.55;;;10.10;99.90;;;;;;5130091;27;20050;-70
2022/09/19 04:44:20;;;;;;;6.32;3.80;;;10.20;99.90;;;;;;5109051;27;20091;-70
2022/09/19 04:46:46;;;;;;;6.55;3.40;;;10.20;99.90;;;;;;5112061;27;20067;-70
2022/09/19 04:49:13;;;;;;;8.32;3.55;;;10.20;99.90;;;;;;5123948;27;20449;-70
2022/09/19 04:51:39;;;;;;;9.52;3.85;;;10.20;99.90;;;;;;5120531;27;20040;-70
2022/09/19 04:54:06;;;;;;;5.28;3.05;;;10.20;99.90;;;;;;5091461;28;20118;-71
2022/09/19 04:56:32;;;;;;;6.05;3.40;;;10.30;99.90;;;;;;5110573;28;20023;-69
2022/09/19 04:58:59;;;;;;;5.28;3.17;;;10.20;99.90;;;;;;5092357;28;20109;-70
2022/09/19 05:01:26;;;;;;;5.45;3.50;;;10.20;99.90;;;;;;5092567;28;20074;-69
2022/09/19 05:03:52;;;;;;;5.95;3.30;;;10.10;99.90;;;;;;5111036;27;20110;-70
2022/09/19 05:06:17;;;;;;;6.88;3.20;;;10.20;99.90;;;;;;5092168;28;20123;-70
2022/09/19 05:08:43;;;;;;;6.57;3.10;;;10.20;99.90;;;;;;5109113;28;20028;-70
2022/09/19 05:11:10;;;;;;;6.38;2.97;;;10.20;99.90;;;;;;5105072;28;20060;-69
2022/09/19 05:13:40;;;;;;;4.50;2.40;;;10.20;99.90;;;;;;5108470;28;20114;-69
2022/09/19 05:16:07;;;;;;;6.18;3.00;;;10.20;99.90;;;;;;5109807;28;20039;-70
2022/09/19 05:18:35;;;;;;;4.38;2.53;;;10.30;99.90;;;;;;5109584;28;20058;-70
2022/09/19 05:21:11;;;;;;;5.30;2.70;;;10.30;99.90;;;;;;5109449;27;20031;-70
2022/09/19 05:23:38;;;;;;;5.03;2.50;;;10.30;99.90;;;;;;5092722;28;20086;-70
2022/09/19 05:26:08;;;;;;;3.67;2.20;;;10.30;99.90;;;;;;5097376;27;20034;-71
2022/09/19 05:28:36;;;;;;;6.43;2.75;;;10.40;99.90;;;;;;5111005;27;20023;-70
2022/09/19 05:31:05;;;;;;;10.30;2.55;;;10.40;99.90;;;;;;5110777;27;20048;-70
2022/09/19 05:33:32;;;;;;;4.57;2.58;;;10.50;99.90;;;;;;5111118;27;20068;-71
2022/09/19 05:36:00;;;;;;;4.90;2.70;;;10.50;99.90;;;;;;5095352;28;20100;-69
2022/09/19 05:38:28;;;;;;;5.30;2.50;;;10.50;99.90;;;;;;5114623;27;20116;-70
2022/09/19 05:40:55;;;;;;;6.75;2.70;;;10.60;99.90;;;;;;5090593;28;20034;-70
2022/09/19 05:43:21;;;;;;;5.80;2.53;;;10.60;99.90;;;;;;5106171;27;20120;-72
2022/09/19 05:45:48;;;;;;;7.70;2.78;;;10.60;99.90;;;;;;5122296;27;20043;-70
2022/09/19 05:48:14;;;;;;;4.82;2.72;;;10.60;99.90;;;;;;5116014;27;20044;-71
2022/09/19 05:50:43;;;;;;;5.05;2.67;;;10.70;99.90;;;;;;5111978;27;20027;-69
2022/09/19 05:55:55;;;;;;;7.88;3.05;;;10.70;99.90;;;;;;5107734;27;20069;-70
2022/09/19 05:58:21;;;;;;;4.40;2.58;;;10.70;99.90;;;;;;5095676;28;20099;-71
2022/09/19 06:00:46;;;;;;;5.93;2.97;;;10.70;99.90;;;;;;5107386;28;20032;-70
2022/09/19 06:03:16;;;;;;;8.32;3.05;;;10.70;99.90;;;;;;5090570;28;20159;-70
2022/09/19 06:05:43;;;;;;;;;;;10.70;99.90;;;;;;5103070;28;20042;-69
2022/09/19 06:08:11;;;;;;;5.93;3.13;;;10.70;99.90;;;;;;5108101;28;20463;-70
2022/09/19 06:10:39;;;;;;;4.75;2.95;;;10.70;99.90;;;;;;5108270;27;20084;-70
2022/09/19 06:13:09;;;;;;;8.70;3.10;;;10.70;99.90;;;;;;5107075;28;20040;-70
2022/09/19 06:15:35;;;;;;;;;;;10.60;99.90;;;;;;5109023;28;20076;-70
2022/09/19 06:18:01;;;;;;;5.40;2.90;;;10.70;99.90;;;;;;5108641;28;19911;-70
2022/09/19 06:20:27;;;;;;;5.55;2.40;;;10.70;99.90;;;;;;5108121;28;20031;-69
2022/09/19 06:22:57;;;;;;;4.95;2.40;;;10.70;99.90;;;;;;5107817;28;20083;-70
2022/09/19 06:25:25;;;;;;;7.43;3.08;;;10.70;99.90;;;;;;5087210;28;20027;-70
2022/09/19 06:28:14;;;;;;;5.05;2.85;;;10.80;99.90;;;;;;5089484;28;20023;-70
2022/09/19 06:30:40;;;;;;;5.90;2.60;;;10.80;99.90;;;;;;5099311;28;20447;-71
2022/09/19 06:33:06;;;;;;;6.40;2.70;;;10.80;99.90;;;;;;5089224;28;20761;-70
2022/09/19 06:35:33;;;;;;;5.00;2.22;;;10.80;99.90;;;;;;5107710;28;20019;-70
2022/09/19 06:38:04;;;;;;;4.25;2.20;;;10.80;99.90;;;;;;5108941;28;20168;-70
2022/09/19 06:40:30;;;;;;;4.82;2.50;;;10.90;99.90;;;;;;5105977;28;20553;-70
2022/09/19 06:43:01;;;;;;;6.10;2.22;;;10.90;99.90;;;;;;5108684;28;20040;-70
2022/09/19 06:45:27;;;;;;;5.07;2.15;;;10.90;99.90;;;;;;5087587;27;20118;-69
2022/09/19 06:47:59;;;;;;;4.35;2.28;;;11.00;99.90;;;;;;5126292;27;20100;-70
2022/09/19 06:50:26;;;;;;;5.57;2.22;;;11.00;99.90;;;;;;5112342;27;20076;-70
2022/09/19 06:52:52;;;;;;;5.25;2.40;;;11.00;99.90;;;;;;5100908;28;20031;-69
2022/09/19 06:55:18;;;;;;;4.85;1.98;;;11.10;99.90;;;;;;5107358;28;20071;-71
2022/09/19 06:57:51;;;;;;;4.47;1.98;;;11.10;99.90;;;;;;5090910;28;20066;-70
2022/09/19 07:00:17;;;;;;;5.15;2.10;;;11.20;99.90;;;;;;5107583;27;20031;-71
2022/09/19 07:02:43;;;;;;;5.30;2.03;;;11.20;99.90;;;;;;5109587;27;20039;-70
2022/09/19 07:05:09;;;;;;;8.27;2.55;;;11.20;99.90;;;;;;5088389;28;20436;-70
2022/09/19 07:07:34;;;;;;;6.20;2.30;;;11.30;99.90;;;;;;5088965;28;20038;-70
2022/09/19 07:10:00;;;;;;;8.02;2.58;;;11.30;99.90;;;;;;5089309;28;20032;-70
2022/09/19 07:12:25;;;;;;;3.35;1.83;;;11.30;99.90;;;;;;5106726;28;20400;-70
2022/09/19 07:14:51;;;;;;;6.70;2.00;;;11.30;99.90;;;;;;5106385;28;21366;-70
2022/09/19 07:17:17;;;;;;;5.95;2.25;;;11.40;99.90;;;;;;5106493;28;20052;-71
2022/09/19 07:19:44;;;;;;;5.85;2.20;;;11.40;99.90;;;;;;5088903;28;20038;-70
2022/09/19 07:22:10;;;;;;;5.88;2.08;;;11.40;99.90;;;;;;5097122;28;20036;-70
2022/09/19 07:24:35;;;;;;;5.15;2.33;;;11.40;99.90;;;;;;5107824;28;20398;-70
2022/09/19 07:27:01;;;;;;;5.22;2.45;;;11.40;99.90;;;;;;5106419;28;20119;-70
2022/09/19 07:29:27;;;;;;;5.97;2.50;;;11.50;99.90;;;;;;5110764;28;20024;-70
2022/09/19 07:31:52;;;;;;;6.78;2.50;;;11.50;99.90;;;;;;5105205;28;20110;-71
2022/09/19 07:34:18;;;;;;;6.40;2.80;;;11.60;99.90;;;;;;5077333;28;20058;-70
2022/09/19 07:36:44;;;;;;;4.72;2.30;;;11.60;99.90;;;;;;5089292;28;20470;-71
2022/09/19 07:39:09;;;;;;;10.02;2.85;;;11.60;99.90;;;;;;5092286;28;20042;-70
2022/09/19 07:41:35;;;;;;;4.35;2.22;;;11.70;99.90;;;;;;5104345;28;20042;-70
2022/09/19 07:44:01;;;;;;;6.10;2.72;;;11.70;99.90;;;;;;5106805;28;20042;-70
2022/09/19 07:46:27;;;;;;;4.90;2.42;;;11.80;99.90;;;;;;5116157;28;20100;-70
2022/09/19 07:48:54;;;;;;;6.40;2.22;;;11.80;99.90;;;;;;5108364;28;20054;-71
2022/09/19 07:51:20;;;;;;;6.63;2.58;;;11.80;99.90;;;;;;5108071;28;20479;-70
2022/09/19 07:53:46;;;;;;;5.72;2.38;;;11.90;99.90;;;;;;5108085;27;20081;-70
2022/09/19 07:56:12;;;;;;;6.50;2.28;;;12.00;99.90;;;;;;5090841;28;20470;-70
2022/09/19 07:58:37;;;;;;;4.18;2.10;;;12.00;99.90;;;;;;5111009;27;20035;-70
2022/09/19 08:01:04;;;;;;;4.93;1.88;;;12.10;99.90;;;;;;5108372;27;20452;-70
2022/09/19 08:03:30;;;;;;;5.70;2.17;;;12.20;99.90;;;;;;5108927;27;20038;-70
2022/09/19 08:05:58;;;;;;;7.20;2.28;;;12.20;99.90;;;;;;5109236;27;20032;-70
2022/09/19 08:08:24;;;;;;;8.15;2.22;;;12.20;99.90;;;;;;5107895;27;20081;-70
2022/09/19 08:10:51;;;;;;;5.50;1.92;;;12.40;99.90;;;;;;5112307;27;20031;-70
2022/09/19 08:13:18;;;;;;;6.25;2.10;;;12.40;99.90;;;;;;5110795;27;20060;-70
2022/09/19 08:15:46;;;;;;;6.97;1.85;;;12.40;99.90;;;;;;5089236;28;20169;-70
2022/09/19 08:18:15;;;;;;;6.00;2.00;;;12.50;99.90;;;;;;5110086;27;20067;-70
2022/09/19 08:20:42;;;;;;;6.78;1.75;;;12.50;99.90;;;;;;5109613;27;20034;-70
2022/09/19 08:23:10;;;;;;;7.53;1.60;;;12.60;99.90;;;;;;5110845;27;20063;-69
2022/09/19 08:25:43;;;;;;;6.05;1.88;;;12.70;99.90;;;;;;5118568;27;20104;-70
2022/09/19 08:28:09;;;;;;;8.27;1.90;;;12.70;99.90;;;;;;5106353;27;20397;-70
2022/09/19 08:30:35;;;;;;;6.00;1.42;;;12.80;99.90;;;;;;5104059;28;20072;-70
2022/09/19 08:33:02;;;;;;;6.30;1.83;;;12.80;99.90;;;;;;5097177;27;20065;-70
2022/09/19 08:35:30;;;;;;;4.18;1.40;;;12.90;99.90;;;;;;5113246;27;20163;-70
2022/09/19 08:37:58;;;;;;;5.25;1.60;;;13.00;99.90;;;;;;5132083;27;20027;-70
2022/09/19 08:40:28;;;;;;;6.95;1.75;;;13.00;99.90;;;;;;5122015;27;20035;-70
2022/09/19 08:43:17;;;;;;;6.95;1.60;;;13.10;99.90;;;;;;5091394;28;20092;-70
2022/09/19 08:46:02;;;;;;;5.32;1.55;;;13.10;99.90;;;;;;5096599;28;20036;-71
2022/09/19 08:48:56;;;;;;;10.70;1.67;;;13.30;99.90;;;;;;5109409;27;20047;-70
2022/09/19 08:51:27;;;;;;;10.98;1.50;;;13.30;99.90;;;;;;5086345;28;20171;-70
2022/09/19 08:54:05;;;;;;;7.38;1.35;;;13.40;99.90;;;;;;5093687;28;20039;-71
2022/09/19 08:56:35;;;;;;;8.25;1.73;;;13.50;99.90;;;;;;5099842;28;20024;-71
2022/09/19 08:59:07;;;;;;;9.02;1.33;;;13.60;99.90;;;;;;5098689;27;20542;-70
2022/09/19 09:01:36;;;;;;;9.02;1.45;;;13.70;99.90;;;;;;5109421;27;20050;-71
2022/09/19 09:04:16;;;;;;;5.55;1.48;;;13.80;99.90;;;;;;5117098;27;20398;-70
2022/09/19 09:07:09;;;;;;;5.82;1.33;;;13.90;99.90;;;;;;5108380;28;20027;-72
2022/09/19 09:09:44;;;;;;;5.43;1.13;;;13.90;99.90;;;;;;5110020;27;20473;-71
2022/09/19 09:12:14;;;;;;;6.93;1.20;;;14.00;99.90;;;;;;5112965;27;20043;-70
2022/09/19 09:14:46;;;;;;;4.35;1.23;;;14.10;99.90;;;;;;5109310;27;20819;-71
2022/09/19 09:17:30;;;;;;;4.60;1.08;;;14.10;99.90;;;;;;5108670;27;20489;-70
2022/09/19 09:20:24;;;;;;;6.85;1.23;;;14.20;99.90;;;;;;5107190;27;20529;-71
2022/09/19 09:22:59;;;;;;;6.40;1.60;;;14.30;99.90;;;;;;5104251;28;20024;-70
2022/09/19 09:25:29;;;;;;;6.10;1.52;;;14.30;99.90;;;;;;5108173;28;20122;-71
2022/09/19 09:28:07;;;;;;;8.00;1.50;;;14.40;99.90;;;;;;5108584;28;20499;-70
2022/09/19 09:30:40;;;;;;;5.07;1.25;;;14.50;99.90;;;;;;5103037;28;20496;-71
2022/09/19 09:33:29;;;;;;;5.75;1.40;;;14.50;99.90;;;;;;5086499;28;20031;-70
2022/09/19 09:36:02;;;;;;;5.97;1.42;;;14.60;99.90;;;;;;5109136;27;20059;-71
2022/09/19 09:38:51;;;;;;;5.90;1.17;;;14.60;99.90;;;;;;5107070;28;20035;-70
2022/09/19 09:44:20;;;;;;;7.93;1.80;;;14.70;99.90;;;;;;5112084;27;19919;-71
2022/09/19 09:46:48;;;;;;;6.82;1.70;;;14.80;99.90;;;;;;5088077;28;20508;-70
2022/09/19 09:49:14;;;;;;;3.65;1.33;;;14.80;99.90;;;;;;5094227;28;20063;-71
2022/09/19 09:51:46;;;;;;;3.88;1.10;;;14.80;99.90;;;;;;5093667;27;20118;-71
2022/09/19 09:57:29;;;;;;;6.03;1.27;;;14.90;99.90;;;;;;5108208;27;20071;-70
2022/09/19 10:03:35;;;;;;;4.97;1.27;;;14.90;99.90;;;;;;5104535;28;20046;-71
2022/09/19 10:06:53;;;;;;;4.40;1.23;;;15.00;99.90;;;;;;5087998;28;20027;-71
2022/09/19 10:09:30;;;;;;;4.13;1.23;;;15.00;99.90;;;;;;5081195;28;20035;-70
2022/09/19 10:12:14;;;;;;;4.30;1.00;;;15.00;99.90;;;;;;5084649;28;20031;-70
2022/09/19 10:14:41;;;;;;;3.95;1.08;;;15.10;99.90;;;;;;5101447;28;20084;-72
2022/09/19 10:17:08;;;;;;;4.00;1.20;;;15.10;99.90;;;;;;5105440;27;20032;-71
2022/09/19 10:19:45;;;;;;;4.03;0.98;;;15.10;99.90;;;;;;5100392;27;20752;-72
2022/09/19 10:22:15;;;;;;;4.82;1.00;;;15.20;99.90;;;;;;5084639;28;20042;-70
2022/09/19 10:24:59;;;;;;;4.18;1.00;;;15.20;99.90;;;;;;5098353;28;20039;-71
2022/09/19 10:27:26;;;;;;;4.20;0.88;;;15.20;99.90;;;;;;5084654;27;20424;-71
2022/09/19 10:29:58;;;;;;;2.75;0.73;;;15.20;99.90;;;;;;5078992;28;20028;-71
2022/09/19 10:32:37;;;;;;;3.05;0.70;;;15.20;99.90;;;;;;5095769;27;20039;-70
2022/09/19 10:35:28;;;;;;;5.88;0.80;;;15.20;98.50;;;;;;5110700;27;20485;-70
2022/09/19 10:38:13;;;;;;;4.25;0.63;;;15.30;97.50;;;;;;5092801;28;20024;-69
2022/09/19 10:40:55;;;;;;;2.83;0.55;;;15.30;96.40;;;;;;5100928;27;20038;-70
2022/09/19 10:43:32;;;;;;;4.20;0.70;;;15.30;95.00;;;;;;5102238;27;20051;-70
2022/09/19 10:46:05;;;;;;;2.90;0.60;;;15.40;94.60;;;;;;5110125;27;20476;-71
2022/09/19 10:48:33;;;;;;;3.38;1.00;;;15.40;94.10;;;;;;5095518;28;20054;-70
2022/09/19 10:50:59;;;;;;;3.13;0.60;;;15.40;93.90;;;;;;5112687;27;20137;-71
2022/09/19 10:53:32;;;;;;;3.92;0.60;;;15.50;93.40;;;;;;5109681;27;20488;-69
2022/09/19 10:56:07;;;;;;;5.30;0.70;;;15.50;93.30;;;;;;5127239;27;20030;-70
2022/09/19 10:58:38;;;;;;;4.50;0.65;;;15.60;92.60;;;;;;5110263;27;20039;-69
2022/09/19 11:01:07;;;;;;;3.88;0.68;;;15.50;93.30;;;;;;5121468;27;20023;-70
2022/09/19 11:03:35;;;;;;;3.90;0.60;;;15.60;93.30;;;;;;5091163;27;20036;-69
2022/09/19 11:06:12;;;;;;;4.68;0.70;;;15.60;92.10;;;;;;5098242;27;20027;-70
2022/09/19 11:08:51;;;;;;;2.08;0.57;;;15.70;92.40;;;;;;5117383;27;20119;-70
2022/09/19 11:11:33;;;;;;;2.80;0.50;;;16.00;92.10;;;;;;5097935;27;20169;-71
2022/09/19 11:14:18;;;;;;;1.77;0.40;;;16.40;92.10;;;;;;5116807;27;20486;-70
2022/09/19 11:17:00;;;;;;;3.20;0.55;;;16.80;89.70;;;;;;5115275;27;20030;-71
2022/09/19 11:19:27;;;;;;;5.20;0.60;;;17.10;90.40;;;;;;5094734;28;20038;-72
2022/09/19 11:22:18;;;;;;;3.47;0.70;;;17.30;85.30;;;;;;5112019;28;20031;-71
2022/09/19 11:24:54;;;;;;;5.25;0.75;;;17.30;82.30;;;;;;5119034;28;20058;-71
2022/09/19 11:27:34;;;;;;;3.42;0.65;;;17.30;83.40;;;;;;5119632;27;20026;-70
2022/09/19 11:30:12;;;;;;;4.88;0.90;;;17.50;83.40;;;;;;5123587;27;20429;-74
2022/09/19 11:32:49;;;;;;;2.70;0.60;;;18.30;80.80;;;;;;5111704;28;20039;-71
2022/09/19 11:35:18;;;;;;;3.78;0.93;;;18.70;77.80;;;;;;5112813;27;20040;-70
2022/09/19 11:37:56;;;;;;;3.77;0.93;;;20.90;70.50;;;;;;5094373;28;20489;-71
2022/09/19 11:40:45;;;;;;;2.83;0.70;;;21.20;66.00;;;;;;5111794;28;20106;-71
2022/09/19 11:43:56;;;;;;;2.47;0.73;;;20.60;65.60;;;;;;5112210;28;20044;-71
2022/09/19 11:46:44;;;;;;;3.13;0.90;;;21.60;61.80;;;;;;5094061;28;20063;-71
2022/09/19 11:49:39;;;;;;;2.95;0.90;;;23.10;57.00;;;;;;5091995;28;20054;-72
2022/09/19 11:52:13;;;;;;;3.15;1.08;;;23.60;52.60;;;;;;5112188;28;20077;-70
2022/09/19 11:54:50;;;;;;;4.05;1.10;;;22.10;53.80;;;;;;5111335;28;20035;-71
2022/09/19 11:57:44;;;;;;;3.75;1.10;;;20.90;58.20;;;;;;5095523;27;20446;-70
2022/09/19 12:00:20;;;;;;;5.22;1.33;;;20.10;62.00;;;;;;5095048;28;20038;-72
2022/09/19 12:02:46;;;;;;;3.08;0.93;;;19.60;64.50;;;;;;5108174;28;20112;-72
2022/09/19 12:05:49;;;;;;;3.03;0.90;;;19.30;65.20;;;;;;5113319;27;20058;-72
2022/09/19 12:08:20;;;;;;;5.47;1.23;;;19.00;65.90;;;;;;5116454;27;20039;-71
2022/09/19 12:10:54;;;;;;;7.28;1.20;;;18.80;65.70;;;;;;5111790;28;20027;-70
2022/09/19 12:13:49;;;;;;;4.15;0.90;;;18.60;65.70;;;;;;5111878;28;20034;-71
2022/09/19 12:16:28;;;;;;;2.95;0.82;;;18.50;68.50;;;;;;5111201;28;20059;-70
2022/09/19 12:19:09;;;;;;;2.70;0.90;;;18.70;68.60;;;;;;5114511;28;20051;-70
2022/09/19 12:21:43;;;;;;;2.60;1.10;;;19.90;65.60;;;;;;5095259;28;20146;-70
2022/09/19 12:24:53;;;;;;;2.53;1.00;;;19.90;63.30;;;;;;5110807;27;20035;-71
2022/09/19 12:27:39;;;;;;;3.03;0.85;;;20.70;62.70;;;;;;5112665;27;20083;-71
2022/09/19 12:30:12;;;;;;;5.18;1.55;;;20.90;60.00;;;;;;5096406;27;20039;-71
2022/09/19 12:33:08;;;;;;;3.88;1.50;;;20.40;60.80;;;;;;5112464;27;20088;-70
2022/09/19 12:35:51;;;;;;;4.40;1.30;;;19.90;61.60;;;;;;5113543;28;20426;-72
2022/09/19 12:38:22;;;;;;;3.03;0.75;;;19.60;64.80;;;;;;5107678;27;20044;-72
2022/09/19 12:41:10;;;;;;;4.18;1.00;;;19.40;64.80;;;;;;5092060;28;20034;-73
2022/09/19 12:43:38;;;;;;;2.58;0.70;;;19.40;66.20;;;;;;5091864;28;20043;-71
2022/09/19 12:46:29;;;;;;;3.35;0.98;;;19.30;65.00;;;;;;5117315;27;20058;-71
2022/09/19 12:49:01;;;;;;;2.15;0.68;;;19.30;68.30;;;;;;5094612;28;20083;-72
2022/09/19 12:51:46;;;;;;;1.88;0.95;;;19.40;67.30;;;;;;5105975;28;20043;-72
2022/09/19 12:54:29;;;;;;;2.67;0.80;;;19.50;66.40;;;;;;5103112;28;20040;-71
2022/09/19 12:57:19;;;;;;;8.15;1.00;;;19.60;65.60;;;;;;5119089;27;20465;-73
2022/09/19 12:59:47;;;;;;;2.13;0.70;;;19.60;66.50;;;;;;5128652;27;20766;-73
2022/09/19 13:02:31;;;;;;;3.25;0.88;;;19.70;66.10;;;;;;5109899;28;20032;-73
2022/09/19 13:05:05;;;;;;;3.33;0.73;;;19.80;65.40;;;;;;5090007;27;20390;-71
2022/09/19 13:07:37;;;;;;;1.92;0.80;;;19.70;62.50;;;;;;5119975;27;20039;-71
2022/09/19 13:10:38;;;;;;;3.58;0.80;;;20.00;63.10;;;;;;5117991;27;20109;-72
2022/09/19 13:13:22;;;;;;;2.63;0.70;;;21.40;61.10;;;;;;5109787;27;20400;-72
2022/09/19 13:16:06;;;;;;;1.77;0.70;;;22.20;57.40;;;;;;5104295;27;20035;-72
2022/09/19 13:24:12;;;;;;;2.47;0.73;;;21.20;59.60;;;;;;5111437;27;20080;-72
2022/09/19 13:26:38;;;;;;;3.67;0.60;;;20.80;58.90;;;;;;5087593;27;20027;-71
2022/09/19 13:29:28;;;;;;;3.72;0.80;;;20.60;59.60;;;;;;5088751;27;20123;-72
2022/09/19 13:31:57;;;;;;;3.13;0.70;;;20.40;62.90;;;;;;5116672;27;20039;-72
2022/09/19 13:34:44;;;;;;;1.60;0.60;;;20.30;63.40;;;;;;5106729;27;20092;-72
2022/09/19 13:37:29;;;;;;;3.55;0.80;;;20.40;63.50;;;;;;5107118;28;20529;-72
2022/09/19 13:40:27;;;;;;;3.35;0.70;;;20.40;62.80;;;;;;5109125;27;20024;-72
2022/09/19 13:43:18;;;;;;;2.00;0.70;;;20.30;63.30;;;;;;5089111;28;20191;-71